Terminal Aerodrome Forecast
Issued by NWS Wakefield, VA

Home | Current Version | Previous Version | Text Only | Print | Product List | Glossary On
Versions: 1 2 3 4 5 6 7 8 9 10 11 12 13 14 15 16 17 18
000
FTUS41 KAKQ 050917 AAA
TAFORF
TAF AMD
KORF 050917Z 0509/0606 06011KT P6SM BKN040
      TEMPO 0510/0512 5SM -SHRA OVC025
     FM051400 07014KT P6SM BKN025
     FM051800 08014KT P6SM SCT020 BKN045=

USA.gov is the U.S. government's official web portal to all federal, state and local government web resources and services.